sensor_id;sensor_type;location;lat;lon;timestamp;P1;durP1;ratioP1;P2;durP2;ratioP2
48516;SDS011;34310;51.904;4.256;2023-04-25T00:00:55;5.72;;;2.70;;
48516;SDS011;34310;51.904;4.256;2023-04-25T00:03:22;5.50;;;2.85;;
48516;SDS011;34310;51.904;4.256;2023-04-25T00:05:51;6.40;;;3.00;;
48516;SDS011;34310;51.904;4.256;2023-04-25T00:08:19;5.35;;;2.67;;
48516;SDS011;34310;51.904;4.256;2023-04-25T00:10:46;6.10;;;3.08;;
48516;SDS011;34310;51.904;4.256;2023-04-25T00:13:14;5.30;;;2.65;;
48516;SDS011;34310;51.904;4.256;2023-04-25T00:15:43;5.30;;;2.97;;
48516;SDS011;34310;51.904;4.256;2023-04-25T00:18:14;6.18;;;2.92;;
48516;SDS011;34310;51.904;4.256;2023-04-25T00:20:42;5.45;;;2.65;;
48516;SDS011;34310;51.904;4.256;2023-04-25T00:23:13;6.30;;;2.97;;
48516;SDS011;34310;51.904;4.256;2023-04-25T00:25:44;5.40;;;2.63;;
48516;SDS011;34310;51.904;4.256;2023-04-25T00:28:12;6.20;;;2.60;;
48516;SDS011;34310;51.904;4.256;2023-04-25T00:30:39;4.57;;;2.45;;
48516;SDS011;34310;51.904;4.256;2023-04-25T00:33:07;5.13;;;2.83;;
48516;SDS011;34310;51.904;4.256;2023-04-25T00:35:35;5.40;;;2.88;;
48516;SDS011;34310;51.904;4.256;2023-04-25T00:38:03;4.47;;;2.53;;
48516;SDS011;34310;51.904;4.256;2023-04-25T00:40:30;5.43;;;2.75;;
48516;SDS011;34310;51.904;4.256;2023-04-25T00:42:57;6.28;;;2.97;;
48516;SDS011;34310;51.904;4.256;2023-04-25T00:45:27;6.65;;;2.70;;
48516;SDS011;34310;51.904;4.256;2023-04-25T00:47:58;6.40;;;2.67;;
48516;SDS011;34310;51.904;4.256;2023-04-25T00:50:26;5.80;;;2.90;;
48516;SDS011;34310;51.904;4.256;2023-04-25T00:52:53;4.53;;;2.25;;
48516;SDS011;34310;51.904;4.256;2023-04-25T00:55:21;5.55;;;2.60;;
48516;SDS011;34310;51.904;4.256;2023-04-25T00:57:48;6.60;;;3.15;;
48516;SDS011;34310;51.904;4.256;2023-04-25T01:00:16;6.93;;;2.42;;
48516;SDS011;34310;51.904;4.256;2023-04-25T01:02:44;5.47;;;2.47;;
48516;SDS011;34310;51.904;4.256;2023-04-25T01:05:12;5.60;;;2.35;;
48516;SDS011;34310;51.904;4.256;2023-04-25T01:07:40;3.97;;;1.95;;
48516;SDS011;34310;51.904;4.256;2023-04-25T01:10:07;4.63;;;2.50;;
48516;SDS011;34310;51.904;4.256;2023-04-25T01:12:35;4.85;;;2.28;;
48516;SDS011;34310;51.904;4.256;2023-04-25T01:15:03;5.45;;;2.40;;
48516;SDS011;34310;51.904;4.256;2023-04-25T01:17:30;4.13;;;1.95;;
48516;SDS011;34310;51.904;4.256;2023-04-25T01:20:01;6.78;;;2.28;;
48516;SDS011;34310;51.904;4.256;2023-04-25T01:22:31;6.22;;;2.15;;
48516;SDS011;34310;51.904;4.256;2023-04-25T01:24:59;4.93;;;2.30;;
48516;SDS011;34310;51.904;4.256;2023-04-25T01:27:27;5.10;;;2.20;;
48516;SDS011;34310;51.904;4.256;2023-04-25T01:29:55;5.18;;;2.30;;
48516;SDS011;34310;51.904;4.256;2023-04-25T01:32:23;5.13;;;2.28;;
48516;SDS011;34310;51.904;4.256;2023-04-25T01:34:51;4.35;;;2.10;;
48516;SDS011;34310;51.904;4.256;2023-04-25T01:37:19;5.25;;;2.30;;
48516;SDS011;34310;51.904;4.256;2023-04-25T01:39:46;3.38;;;2.10;;
48516;SDS011;34310;51.904;4.256;2023-04-25T01:42:14;4.65;;;2.20;;
48516;SDS011;34310;51.904;4.256;2023-04-25T01:44:42;4.35;;;2.10;;
48516;SDS011;34310;51.904;4.256;2023-04-25T01:47:09;4.68;;;2.05;;
48516;SDS011;34310;51.904;4.256;2023-04-25T01:49:37;4.38;;;1.90;;
48516;SDS011;34310;51.904;4.256;2023-04-25T01:52:04;5.07;;;2.33;;
48516;SDS011;34310;51.904;4.256;2023-04-25T01:54:32;4.18;;;2.00;;
48516;SDS011;34310;51.904;4.256;2023-04-25T01:56:59;3.45;;;1.90;;
48516;SDS011;34310;51.904;4.256;2023-04-25T01:59:27;3.70;;;2.15;;
48516;SDS011;34310;51.904;4.256;2023-04-25T02:01:55;3.47;;;1.70;;
48516;SDS011;34310;51.904;4.256;2023-04-25T02:04:22;3.47;;;2.20;;
48516;SDS011;34310;51.904;4.256;2023-04-25T02:06:50;5.72;;;2.15;;
48516;SDS011;34310;51.904;4.256;2023-04-25T02:09:17;3.70;;;1.95;;
48516;SDS011;34310;51.904;4.256;2023-04-25T02:11:44;4.30;;;1.90;;
48516;SDS011;34310;51.904;4.256;2023-04-25T02:14:12;5.43;;;2.00;;
48516;SDS011;34310;51.904;4.256;2023-04-25T02:16:39;3.40;;;1.85;;
48516;SDS011;34310;51.904;4.256;2023-04-25T02:19:07;4.28;;;1.90;;
48516;SDS011;34310;51.904;4.256;2023-04-25T02:21:34;4.03;;;1.92;;
48516;SDS011;34310;51.904;4.256;2023-04-25T02:24:02;3.25;;;1.75;;
48516;SDS011;34310;51.904;4.256;2023-04-25T02:26:29;3.75;;;1.88;;
48516;SDS011;34310;51.904;4.256;2023-04-25T02:28:57;5.07;;;2.13;;
48516;SDS011;34310;51.904;4.256;2023-04-25T02:31:24;4.07;;;1.63;;
48516;SDS011;34310;51.904;4.256;2023-04-25T02:33:52;2.92;;;1.75;;
48516;SDS011;34310;51.904;4.256;2023-04-25T02:36:19;3.25;;;1.70;;
48516;SDS011;34310;51.904;4.256;2023-04-25T02:38:46;7.38;;;2.13;;
48516;SDS011;34310;51.904;4.256;2023-04-25T02:41:14;4.10;;;1.58;;
48516;SDS011;34310;51.904;4.256;2023-04-25T02:43:41;2.47;;;1.50;;
48516;SDS011;34310;51.904;4.256;2023-04-25T02:46:08;4.47;;;1.90;;
48516;SDS011;34310;51.904;4.256;2023-04-25T02:48:36;3.83;;;1.85;;
48516;SDS011;34310;51.904;4.256;2023-04-25T02:51:03;4.57;;;2.10;;
48516;SDS011;34310;51.904;4.256;2023-04-25T02:53:30;3.50;;;1.80;;
48516;SDS011;34310;51.904;4.256;2023-04-25T02:55:58;3.10;;;1.75;;
48516;SDS011;34310;51.904;4.256;2023-04-25T02:58:25;4.05;;;1.80;;
48516;SDS011;34310;51.904;4.256;2023-04-25T03:00:53;3.40;;;2.25;;
48516;SDS011;34310;51.904;4.256;2023-04-25T03:03:21;3.95;;;1.88;;
48516;SDS011;34310;51.904;4.256;2023-04-25T03:05:49;2.72;;;1.70;;
48516;SDS011;34310;51.904;4.256;2023-04-25T03:08:17;3.45;;;1.90;;
48516;SDS011;34310;51.904;4.256;2023-04-25T03:10:45;4.97;;;2.30;;
48516;SDS011;34310;51.904;4.256;2023-04-25T03:13:12;4.32;;;1.80;;
48516;SDS011;34310;51.904;4.256;2023-04-25T03:15:40;4.05;;;1.90;;
48516;SDS011;34310;51.904;4.256;2023-04-25T03:18:07;4.47;;;1.90;;
48516;SDS011;34310;51.904;4.256;2023-04-25T03:20:34;5.10;;;1.88;;
48516;SDS011;34310;51.904;4.256;2023-04-25T03:23:02;3.30;;;1.70;;
48516;SDS011;34310;51.904;4.256;2023-04-25T03:25:29;2.55;;;1.42;;
48516;SDS011;34310;51.904;4.256;2023-04-25T03:27:56;3.25;;;1.58;;
48516;SDS011;34310;51.904;4.256;2023-04-25T03:30:24;3.85;;;1.73;;
48516;SDS011;34310;51.904;4.256;2023-04-25T03:32:51;4.70;;;2.00;;
48516;SDS011;34310;51.904;4.256;2023-04-25T03:35:18;1.75;;;1.25;;
48516;SDS011;34310;51.904;4.256;2023-04-25T03:37:46;3.25;;;1.90;;
48516;SDS011;34310;51.904;4.256;2023-04-25T03:40:13;3.33;;;1.75;;
48516;SDS011;34310;51.904;4.256;2023-04-25T03:42:41;4.22;;;2.03;;
48516;SDS011;34310;51.904;4.256;2023-04-25T03:45:10;2.78;;;1.50;;
48516;SDS011;34310;51.904;4.256;2023-04-25T03:47:37;3.17;;;1.67;;
48516;SDS011;34310;51.904;4.256;2023-04-25T03:50:05;2.35;;;1.52;;
48516;SDS011;34310;51.904;4.256;2023-04-25T03:52:32;3.70;;;1.77;;
48516;SDS011;34310;51.904;4.256;2023-04-25T03:55:00;4.55;;;1.75;;
48516;SDS011;34310;51.904;4.256;2023-04-25T03:57:27;4.43;;;2.08;;
48516;SDS011;34310;51.904;4.256;2023-04-25T03:59:54;2.63;;;1.40;;
48516;SDS011;34310;51.904;4.256;2023-04-25T04:02:22;3.70;;;1.58;;
48516;SDS011;34310;51.904;4.256;2023-04-25T04:04:49;2.53;;;1.38;;
48516;SDS011;34310;51.904;4.256;2023-04-25T04:07:17;3.55;;;1.33;;
48516;SDS011;34310;51.904;4.256;2023-04-25T04:09:44;3.45;;;1.50;;
48516;SDS011;34310;51.904;4.256;2023-04-25T04:12:11;3.88;;;1.70;;
48516;SDS011;34310;51.904;4.256;2023-04-25T04:14:39;2.10;;;1.30;;
48516;SDS011;34310;51.904;4.256;2023-04-25T04:17:06;3.85;;;1.50;;
48516;SDS011;34310;51.904;4.256;2023-04-25T04:19:34;3.17;;;1.58;;
48516;SDS011;34310;51.904;4.256;2023-04-25T04:22:01;4.78;;;1.75;;
48516;SDS011;34310;51.904;4.256;2023-04-25T04:24:28;3.75;;;1.42;;
48516;SDS011;34310;51.904;4.256;2023-04-25T04:26:56;2.75;;;1.60;;
48516;SDS011;34310;51.904;4.256;2023-04-25T04:29:23;3.25;;;1.38;;
48516;SDS011;34310;51.904;4.256;2023-04-25T04:31:51;2.58;;;1.58;;
48516;SDS011;34310;51.904;4.256;2023-04-25T04:34:19;3.65;;;1.60;;
48516;SDS011;34310;51.904;4.256;2023-04-25T04:36:47;3.17;;;1.58;;
48516;SDS011;34310;51.904;4.256;2023-04-25T04:39:15;4.10;;;1.67;;
48516;SDS011;34310;51.904;4.256;2023-04-25T04:41:42;3.03;;;1.48;;
48516;SDS011;34310;51.904;4.256;2023-04-25T04:44:09;3.47;;;1.67;;
48516;SDS011;34310;51.904;4.256;2023-04-25T04:46:36;2.92;;;1.45;;
48516;SDS011;34310;51.904;4.256;2023-04-25T04:49:08;3.13;;;1.60;;
48516;SDS011;34310;51.904;4.256;2023-04-25T04:51:37;2.05;;;1.30;;
48516;SDS011;34310;51.904;4.256;2023-04-25T04:54:04;4.07;;;1.50;;
48516;SDS011;34310;51.904;4.256;2023-04-25T04:56:32;3.15;;;1.65;;
48516;SDS011;34310;51.904;4.256;2023-04-25T04:58:59;2.90;;;1.60;;
48516;SDS011;34310;51.904;4.256;2023-04-25T05:01:28;1.95;;;1.27;;
48516;SDS011;34310;51.904;4.256;2023-04-25T05:03:56;3.85;;;1.75;;
48516;SDS011;34310;51.904;4.256;2023-04-25T05:06:27;3.42;;;1.70;;
48516;SDS011;34310;51.904;4.256;2023-04-25T05:08:56;2.08;;;1.48;;
48516;SDS011;34310;51.904;4.256;2023-04-25T05:11:23;3.65;;;1.77;;
48516;SDS011;34310;51.904;4.256;2023-04-25T05:13:51;2.83;;;1.55;;
48516;SDS011;34310;51.904;4.256;2023-04-25T05:16:19;4.38;;;1.40;;
48516;SDS011;34310;51.904;4.256;2023-04-25T05:18:47;3.35;;;1.67;;
48516;SDS011;34310;51.904;4.256;2023-04-25T05:21:14;3.35;;;1.60;;
48516;SDS011;34310;51.904;4.256;2023-04-25T05:23:42;3.08;;;1.80;;
48516;SDS011;34310;51.904;4.256;2023-04-25T05:26:09;2.35;;;1.30;;
48516;SDS011;34310;51.904;4.256;2023-04-25T05:28:40;3.38;;;1.80;;
48516;SDS011;34310;51.904;4.256;2023-04-25T05:31:11;3.08;;;1.63;;
48516;SDS011;34310;51.904;4.256;2023-04-25T05:33:38;3.65;;;1.77;;
48516;SDS011;34310;51.904;4.256;2023-04-25T05:36:06;4.68;;;1.90;;
48516;SDS011;34310;51.904;4.256;2023-04-25T05:38:33;3.72;;;1.92;;
48516;SDS011;34310;51.904;4.256;2023-04-25T05:41:01;2.70;;;1.80;;
48516;SDS011;34310;51.904;4.256;2023-04-25T05:43:28;2.78;;;1.55;;
48516;SDS011;34310;51.904;4.256;2023-04-25T05:45:56;2.80;;;1.70;;
48516;SDS011;34310;51.904;4.256;2023-04-25T05:48:23;2.55;;;1.75;;
48516;SDS011;34310;51.904;4.256;2023-04-25T05:50:51;3.53;;;1.45;;
48516;SDS011;34310;51.904;4.256;2023-04-25T05:53:18;2.63;;;1.33;;
48516;SDS011;34310;51.904;4.256;2023-04-25T05:55:46;1.77;;;1.40;;
48516;SDS011;34310;51.904;4.256;2023-04-25T05:58:14;3.28;;;1.70;;
48516;SDS011;34310;51.904;4.256;2023-04-25T06:00:41;2.70;;;1.63;;
48516;SDS011;34310;51.904;4.256;2023-04-25T06:03:08;2.80;;;1.48;;
48516;SDS011;34310;51.904;4.256;2023-04-25T06:05:36;2.72;;;1.55;;
48516;SDS011;34310;51.904;4.256;2023-04-25T06:08:03;3.20;;;1.80;;
48516;SDS011;34310;51.904;4.256;2023-04-25T06:10:31;3.67;;;1.80;;
48516;SDS011;34310;51.904;4.256;2023-04-25T06:12:58;10.00;;;2.20;;
48516;SDS011;34310;51.904;4.256;2023-04-25T06:15:25;13.70;;;2.65;;
48516;SDS011;34310;51.904;4.256;2023-04-25T06:17:55;19.52;;;3.42;;
48516;SDS011;34310;51.904;4.256;2023-04-25T06:20:23;23.75;;;3.05;;
48516;SDS011;34310;51.904;4.256;2023-04-25T06:22:51;18.70;;;3.47;;
48516;SDS011;34310;51.904;4.256;2023-04-25T06:25:18;17.80;;;3.38;;
48516;SDS011;34310;51.904;4.256;2023-04-25T06:27:46;13.20;;;2.63;;
48516;SDS011;34310;51.904;4.256;2023-04-25T06:30:13;17.98;;;3.58;;
48516;SDS011;34310;51.904;4.256;2023-04-25T06:32:42;9.93;;;2.47;;
48516;SDS011;34310;51.904;4.256;2023-04-25T06:35:09;16.40;;;2.38;;
48516;SDS011;34310;51.904;4.256;2023-04-25T06:37:37;17.52;;;2.72;;
48516;SDS011;34310;51.904;4.256;2023-04-25T06:40:05;12.63;;;2.70;;
48516;SDS011;34310;51.904;4.256;2023-04-25T06:42:32;12.23;;;2.22;;
48516;SDS011;34310;51.904;4.256;2023-04-25T06:45:00;8.23;;;2.47;;
48516;SDS011;34310;51.904;4.256;2023-04-25T06:47:27;10.57;;;2.28;;
48516;SDS011;34310;51.904;4.256;2023-04-25T06:49:56;12.48;;;2.38;;
48516;SDS011;34310;51.904;4.256;2023-04-25T06:52:23;12.98;;;2.47;;
48516;SDS011;34310;51.904;4.256;2023-04-25T06:54:50;9.70;;;2.20;;
48516;SDS011;34310;51.904;4.256;2023-04-25T06:57:17;13.43;;;2.53;;
48516;SDS011;34310;51.904;4.256;2023-04-25T06:59:45;8.75;;;1.67;;
48516;SDS011;34310;51.904;4.256;2023-04-25T07:02:12;11.40;;;2.10;;
48516;SDS011;34310;51.904;4.256;2023-04-25T07:04:39;9.75;;;1.95;;
48516;SDS011;34310;51.904;4.256;2023-04-25T07:07:07;7.60;;;1.92;;
48516;SDS011;34310;51.904;4.256;2023-04-25T07:09:34;10.05;;;2.13;;
48516;SDS011;34310;51.904;4.256;2023-04-25T07:12:01;5.20;;;1.85;;
48516;SDS011;34310;51.904;4.256;2023-04-25T07:14:29;8.90;;;1.80;;
48516;SDS011;34310;51.904;4.256;2023-04-25T07:16:56;4.72;;;1.70;;
48516;SDS011;34310;51.904;4.256;2023-04-25T07:19:24;5.95;;;1.67;;
48516;SDS011;34310;51.904;4.256;2023-04-25T07:21:53;6.97;;;1.65;;
48516;SDS011;34310;51.904;4.256;2023-04-25T07:24:20;5.18;;;1.63;;
48516;SDS011;34310;51.904;4.256;2023-04-25T07:26:47;5.78;;;1.60;;
48516;SDS011;34310;51.904;4.256;2023-04-25T07:29:14;5.38;;;1.52;;
48516;SDS011;34310;51.904;4.256;2023-04-25T07:31:42;5.20;;;1.70;;
48516;SDS011;34310;51.904;4.256;2023-04-25T07:34:09;5.10;;;1.50;;
48516;SDS011;34310;51.904;4.256;2023-04-25T07:36:37;9.07;;;2.58;;
48516;SDS011;34310;51.904;4.256;2023-04-25T07:39:04;4.68;;;1.73;;
48516;SDS011;34310;51.904;4.256;2023-04-25T07:41:31;6.03;;;1.60;;
48516;SDS011;34310;51.904;4.256;2023-04-25T07:43:59;2.70;;;1.30;;
48516;SDS011;34310;51.904;4.256;2023-04-25T07:46:26;7.22;;;1.65;;
48516;SDS011;34310;51.904;4.256;2023-04-25T07:48:54;4.43;;;1.30;;
48516;SDS011;34310;51.904;4.256;2023-04-25T07:51:21;6.13;;;1.20;;
48516;SDS011;34310;51.904;4.256;2023-04-25T07:53:48;4.07;;;1.70;;
48516;SDS011;34310;51.904;4.256;2023-04-25T07:56:16;2.40;;;1.13;;
48516;SDS011;34310;51.904;4.256;2023-04-25T07:58:44;4.13;;;1.42;;
48516;SDS011;34310;51.904;4.256;2023-04-25T08:01:11;4.68;;;1.50;;
48516;SDS011;34310;51.904;4.256;2023-04-25T08:03:38;2.88;;;1.42;;
48516;SDS011;34310;51.904;4.256;2023-04-25T08:06:06;6.85;;;1.52;;
48516;SDS011;34310;51.904;4.256;2023-04-25T08:08:34;5.22;;;1.20;;
48516;SDS011;34310;51.904;4.256;2023-04-25T08:11:01;3.50;;;1.42;;
48516;SDS011;34310;51.904;4.256;2023-04-25T08:13:29;3.08;;;1.30;;
48516;SDS011;34310;51.904;4.256;2023-04-25T08:15:56;2.55;;;1.30;;
48516;SDS011;34310;51.904;4.256;2023-04-25T08:18:23;1.73;;;0.93;;
48516;SDS011;34310;51.904;4.256;2023-04-25T08:20:51;3.08;;;0.90;;
48516;SDS011;34310;51.904;4.256;2023-04-25T08:23:18;2.28;;;1.10;;
48516;SDS011;34310;51.904;4.256;2023-04-25T08:25:45;2.40;;;1.00;;
48516;SDS011;34310;51.904;4.256;2023-04-25T08:28:13;3.20;;;0.95;;
48516;SDS011;34310;51.904;4.256;2023-04-25T08:30:41;3.05;;;1.05;;
48516;SDS011;34310;51.904;4.256;2023-04-25T08:33:08;3.55;;;1.00;;
48516;SDS011;34310;51.904;4.256;2023-04-25T08:35:37;2.83;;;1.00;;
48516;SDS011;34310;51.904;4.256;2023-04-25T08:38:04;3.15;;;1.00;;
48516;SDS011;34310;51.904;4.256;2023-04-25T08:40:32;2.42;;;0.93;;
48516;SDS011;34310;51.904;4.256;2023-04-25T08:43:08;2.67;;;1.00;;
48516;SDS011;34310;51.904;4.256;2023-04-25T08:45:39;1.70;;;0.90;;
48516;SDS011;34310;51.904;4.256;2023-04-25T08:48:14;1.92;;;0.90;;
48516;SDS011;34310;51.904;4.256;2023-04-25T08:50:53;1.65;;;0.82;;
48516;SDS011;34310;51.904;4.256;2023-04-25T08:53:28;2.22;;;1.00;;
48516;SDS011;34310;51.904;4.256;2023-04-25T08:56:00;2.40;;;1.00;;
48516;SDS011;34310;51.904;4.256;2023-04-25T08:58:28;2.38;;;1.00;;
48516;SDS011;34310;51.904;4.256;2023-04-25T09:00:56;3.55;;;1.00;;
48516;SDS011;34310;51.904;4.256;2023-04-25T09:03:24;1.95;;;0.90;;
48516;SDS011;34310;51.904;4.256;2023-04-25T09:05:51;2.30;;;0.80;;
48516;SDS011;34310;51.904;4.256;2023-04-25T09:08:20;2.65;;;0.95;;
48516;SDS011;34310;51.904;4.256;2023-04-25T09:10:47;2.38;;;0.85;;
48516;SDS011;34310;51.904;4.256;2023-04-25T09:13:14;2.28;;;0.90;;
48516;SDS011;34310;51.904;4.256;2023-04-25T09:15:50;3.50;;;0.90;;
48516;SDS011;34310;51.904;4.256;2023-04-25T09:18:29;3.60;;;1.00;;
48516;SDS011;34310;51.904;4.256;2023-04-25T09:21:04;1.27;;;0.70;;
48516;SDS011;34310;51.904;4.256;2023-04-25T09:23:46;1.67;;;0.85;;
48516;SDS011;34310;51.904;4.256;2023-04-25T09:26:16;2.20;;;0.90;;
48516;SDS011;34310;51.904;4.256;2023-04-25T09:28:46;1.45;;;0.70;;
48516;SDS011;34310;51.904;4.256;2023-04-25T09:31:23;1.85;;;0.70;;
48516;SDS011;34310;51.904;4.256;2023-04-25T09:36:26;2.45;;;1.08;;
48516;SDS011;34310;51.904;4.256;2023-04-25T09:38:54;2.33;;;0.98;;
48516;SDS011;34310;51.904;4.256;2023-04-25T09:41:25;1.98;;;0.90;;
48516;SDS011;34310;51.904;4.256;2023-04-25T09:43:52;1.80;;;0.90;;
48516;SDS011;34310;51.904;4.256;2023-04-25T09:46:32;2.05;;;0.77;;
48516;SDS011;34310;51.904;4.256;2023-04-25T09:49:05;1.90;;;0.90;;
48516;SDS011;34310;51.904;4.256;2023-04-25T09:51:34;2.35;;;0.77;;
48516;SDS011;34310;51.904;4.256;2023-04-25T09:54:01;2.22;;;1.00;;
48516;SDS011;34310;51.904;4.256;2023-04-25T09:56:29;1.67;;;1.00;;
48516;SDS011;34310;51.904;4.256;2023-04-25T09:59:01;1.02;;;0.70;;
48516;SDS011;34310;51.904;4.256;2023-04-25T10:01:31;2.30;;;0.95;;
48516;SDS011;34310;51.904;4.256;2023-04-25T10:03:59;1.30;;;0.70;;
48516;SDS011;34310;51.904;4.256;2023-04-25T10:06:30;1.63;;;0.98;;
48516;SDS011;34310;51.904;4.256;2023-04-25T10:09:00;2.67;;;1.00;;
48516;SDS011;34310;51.904;4.256;2023-04-25T10:11:30;2.58;;;1.10;;
48516;SDS011;34310;51.904;4.256;2023-04-25T10:13:59;1.83;;;0.75;;
48516;SDS011;34310;51.904;4.256;2023-04-25T10:16:27;2.35;;;0.80;;
48516;SDS011;34310;51.904;4.256;2023-04-25T10:18:56;2.42;;;0.80;;
48516;SDS011;34310;51.904;4.256;2023-04-25T10:21:24;1.65;;;0.80;;
48516;SDS011;34310;51.904;4.256;2023-04-25T10:23:54;1.85;;;0.80;;
48516;SDS011;34310;51.904;4.256;2023-04-25T10:26:21;2.08;;;1.10;;
48516;SDS011;34310;51.904;4.256;2023-04-25T10:28:56;2.85;;;1.00;;
48516;SDS011;34310;51.904;4.256;2023-04-25T10:31:25;2.25;;;0.98;;
48516;SDS011;34310;51.904;4.256;2023-04-25T10:33:53;3.47;;;0.75;;
48516;SDS011;34310;51.904;4.256;2023-04-25T10:36:21;1.73;;;0.88;;
48516;SDS011;34310;51.904;4.256;2023-04-25T10:38:50;3.28;;;0.98;;
48516;SDS011;34310;51.904;4.256;2023-04-25T10:41:19;2.53;;;0.77;;
48516;SDS011;34310;51.904;4.256;2023-04-25T10:43:48;3.67;;;1.13;;
48516;SDS011;34310;51.904;4.256;2023-04-25T10:51:27;2.30;;;0.80;;
48516;SDS011;34310;51.904;4.256;2023-04-25T10:54:16;1.90;;;0.85;;
48516;SDS011;34310;51.904;4.256;2023-04-25T10:56:48;1.95;;;0.80;;
48516;SDS011;34310;51.904;4.256;2023-04-25T10:59:17;1.20;;;0.77;;
48516;SDS011;34310;51.904;4.256;2023-04-25T11:01:46;2.10;;;0.85;;
48516;SDS011;34310;51.904;4.256;2023-04-25T11:04:24;2.50;;;0.85;;
48516;SDS011;34310;51.904;4.256;2023-04-25T11:09:38;5.32;;;0.85;;
48516;SDS011;34310;51.904;4.256;2023-04-25T11:12:09;3.88;;;0.80;;
48516;SDS011;34310;51.904;4.256;2023-04-25T11:14:41;1.98;;;1.00;;
48516;SDS011;34310;51.904;4.256;2023-04-25T11:17:08;2.22;;;0.90;;
48516;SDS011;34310;51.904;4.256;2023-04-25T11:19:37;4.10;;;0.85;;
48516;SDS011;34310;51.904;4.256;2023-04-25T11:22:04;1.25;;;0.70;;
48516;SDS011;34310;51.904;4.256;2023-04-25T11:24:33;3.13;;;0.90;;
48516;SDS011;34310;51.904;4.256;2023-04-25T11:27:04;3.28;;;0.77;;
48516;SDS011;34310;51.904;4.256;2023-04-25T11:29:33;2.78;;;0.75;;
48516;SDS011;34310;51.904;4.256;2023-04-25T11:32:01;3.05;;;0.80;;
48516;SDS011;34310;51.904;4.256;2023-04-25T11:34:29;4.93;;;1.30;;
48516;SDS011;34310;51.904;4.256;2023-04-25T11:37:00;1.92;;;0.77;;
48516;SDS011;34310;51.904;4.256;2023-04-25T11:39:29;2.65;;;0.80;;
48516;SDS011;34310;51.904;4.256;2023-04-25T11:41:56;1.75;;;0.57;;
48516;SDS011;34310;51.904;4.256;2023-04-25T11:44:27;1.83;;;0.80;;
48516;SDS011;34310;51.904;4.256;2023-04-25T11:46:56;3.08;;;0.90;;
48516;SDS011;34310;51.904;4.256;2023-04-25T11:49:23;1.98;;;1.00;;
48516;SDS011;34310;51.904;4.256;2023-04-25T11:51:57;1.05;;;0.80;;
48516;SDS011;34310;51.904;4.256;2023-04-25T11:54:24;1.67;;;0.90;;
48516;SDS011;34310;51.904;4.256;2023-04-25T11:56:52;2.10;;;0.75;;
48516;SDS011;34310;51.904;4.256;2023-04-25T11:59:22;1.23;;;0.63;;
48516;SDS011;34310;51.904;4.256;2023-04-25T12:01:51;1.92;;;0.73;;
48516;SDS011;34310;51.904;4.256;2023-04-25T12:04:22;1.48;;;0.85;;
48516;SDS011;34310;51.904;4.256;2023-04-25T12:06:52;2.33;;;0.70;;
48516;SDS011;34310;51.904;4.256;2023-04-25T12:09:28;3.78;;;0.90;;
48516;SDS011;34310;51.904;4.256;2023-04-25T12:11:57;1.85;;;0.77;;
48516;SDS011;34310;51.904;4.256;2023-04-25T12:14:32;2.17;;;0.82;;
48516;SDS011;34310;51.904;4.256;2023-04-25T12:17:02;1.20;;;0.90;;
48516;SDS011;34310;51.904;4.256;2023-04-25T12:19:32;1.35;;;0.60;;
48516;SDS011;34310;51.904;4.256;2023-04-25T12:22:00;1.90;;;0.85;;
48516;SDS011;34310;51.904;4.256;2023-04-25T12:24:33;1.50;;;0.70;;
48516;SDS011;34310;51.904;4.256;2023-04-25T12:27:05;1.38;;;0.82;;
48516;SDS011;34310;51.904;4.256;2023-04-25T12:29:34;1.90;;;0.93;;
48516;SDS011;34310;51.904;4.256;2023-04-25T12:32:05;2.55;;;1.10;;
48516;SDS011;34310;51.904;4.256;2023-04-25T12:34:32;1.20;;;0.68;;
48516;SDS011;34310;51.904;4.256;2023-04-25T12:37:02;2.45;;;0.90;;
48516;SDS011;34310;51.904;4.256;2023-04-25T12:39:29;2.55;;;1.00;;
48516;SDS011;34310;51.904;4.256;2023-04-25T12:41:56;1.60;;;0.70;;
48516;SDS011;34310;51.904;4.256;2023-04-25T12:44:25;1.50;;;1.13;;
48516;SDS011;34310;51.904;4.256;2023-04-25T12:46:52;1.98;;;0.82;;
48516;SDS011;34310;51.904;4.256;2023-04-25T12:49:20;1.23;;;0.65;;
48516;SDS011;34310;51.904;4.256;2023-04-25T12:51:48;1.20;;;0.68;;
48516;SDS011;34310;51.904;4.256;2023-04-25T12:54:17;1.75;;;0.90;;
48516;SDS011;34310;51.904;4.256;2023-04-25T12:56:45;2.03;;;0.85;;
48516;SDS011;34310;51.904;4.256;2023-04-25T12:59:12;1.30;;;0.70;;
48516;SDS011;34310;51.904;4.256;2023-04-25T13:01:40;2.90;;;0.85;;
48516;SDS011;34310;51.904;4.256;2023-04-25T13:04:07;1.35;;;0.73;;
48516;SDS011;34310;51.904;4.256;2023-04-25T13:06:35;1.30;;;0.80;;
48516;SDS011;34310;51.904;4.256;2023-04-25T13:09:02;1.58;;;0.80;;
48516;SDS011;34310;51.904;4.256;2023-04-25T13:11:29;3.15;;;1.13;;
48516;SDS011;34310;51.904;4.256;2023-04-25T13:13:57;1.20;;;0.70;;
48516;SDS011;34310;51.904;4.256;2023-04-25T13:16:25;0.90;;;0.60;;
48516;SDS011;34310;51.904;4.256;2023-04-25T13:18:52;2.33;;;0.82;;
48516;SDS011;34310;51.904;4.256;2023-04-25T13:21:22;1.67;;;0.82;;
48516;SDS011;34310;51.904;4.256;2023-04-25T13:23:49;1.10;;;0.80;;
48516;SDS011;34310;51.904;4.256;2023-04-25T13:26:17;2.10;;;0.90;;
48516;SDS011;34310;51.904;4.256;2023-04-25T13:28:44;2.60;;;0.95;;
48516;SDS011;34310;51.904;4.256;2023-04-25T13:31:12;2.03;;;0.80;;
48516;SDS011;34310;51.904;4.256;2023-04-25T13:33:39;1.48;;;0.70;;
48516;SDS011;34310;51.904;4.256;2023-04-25T13:36:06;1.75;;;0.80;;
48516;SDS011;34310;51.904;4.256;2023-04-25T13:38:34;1.90;;;0.80;;
48516;SDS011;34310;51.904;4.256;2023-04-25T13:41:01;1.60;;;0.70;;
48516;SDS011;34310;51.904;4.256;2023-04-25T13:43:28;1.17;;;0.75;;
48516;SDS011;34310;51.904;4.256;2023-04-25T13:45:56;1.55;;;0.88;;
48516;SDS011;34310;51.904;4.256;2023-04-25T13:48:23;2.63;;;0.80;;
48516;SDS011;34310;51.904;4.256;2023-04-25T13:50:51;1.27;;;0.80;;
48516;SDS011;34310;51.904;4.256;2023-04-25T13:53:18;2.30;;;1.05;;
48516;SDS011;34310;51.904;4.256;2023-04-25T13:55:45;1.35;;;0.68;;
48516;SDS011;34310;51.904;4.256;2023-04-25T13:58:13;2.40;;;0.90;;
48516;SDS011;34310;51.904;4.256;2023-04-25T14:00:40;2.38;;;0.90;;
48516;SDS011;34310;51.904;4.256;2023-04-25T14:03:09;2.58;;;1.00;;
48516;SDS011;34310;51.904;4.256;2023-04-25T14:05:37;2.22;;;0.90;;
48516;SDS011;34310;51.904;4.256;2023-04-25T14:08:08;2.40;;;0.90;;
48516;SDS011;34310;51.904;4.256;2023-04-25T14:10:36;2.90;;;1.00;;
48516;SDS011;34310;51.904;4.256;2023-04-25T14:13:04;1.48;;;0.77;;
48516;SDS011;34310;51.904;4.256;2023-04-25T14:15:34;2.95;;;0.93;;
48516;SDS011;34310;51.904;4.256;2023-04-25T14:18:01;2.40;;;1.00;;
48516;SDS011;34310;51.904;4.256;2023-04-25T14:20:29;2.60;;;0.90;;
48516;SDS011;34310;51.904;4.256;2023-04-25T14:22:57;2.70;;;1.05;;
48516;SDS011;34310;51.904;4.256;2023-04-25T14:25:25;2.63;;;1.10;;
48516;SDS011;34310;51.904;4.256;2023-04-25T14:27:53;2.55;;;0.82;;
48516;SDS011;34310;51.904;4.256;2023-04-25T14:30:21;2.65;;;1.10;;
48516;SDS011;34310;51.904;4.256;2023-04-25T14:32:49;1.15;;;0.80;;
48516;SDS011;34310;51.904;4.256;2023-04-25T14:35:16;3.25;;;0.80;;
48516;SDS011;34310;51.904;4.256;2023-04-25T14:37:44;3.60;;;1.00;;
48516;SDS011;34310;51.904;4.256;2023-04-25T14:40:12;1.95;;;0.90;;
48516;SDS011;34310;51.904;4.256;2023-04-25T14:42:41;2.72;;;1.10;;
48516;SDS011;34310;51.904;4.256;2023-04-25T14:45:08;1.90;;;0.93;;
48516;SDS011;34310;51.904;4.256;2023-04-25T14:47:36;2.25;;;0.95;;
48516;SDS011;34310;51.904;4.256;2023-04-25T14:50:05;1.95;;;0.75;;
48516;SDS011;34310;51.904;4.256;2023-04-25T14:52:33;2.65;;;1.10;;
48516;SDS011;34310;51.904;4.256;2023-04-25T14:55:00;3.75;;;1.08;;
48516;SDS011;34310;51.904;4.256;2023-04-25T14:57:32;2.90;;;1.10;;
48516;SDS011;34310;51.904;4.256;2023-04-25T15:00:00;2.20;;;1.20;;
48516;SDS011;34310;51.904;4.256;2023-04-25T15:02:28;2.80;;;1.00;;
48516;SDS011;34310;51.904;4.256;2023-04-25T15:04:55;2.08;;;1.08;;